Whitewood, South Dakota
Current Conditions -  °F | °C
As of 9:55 PM on Sunday 21 Dec 2014 (Local Time) from KSPF Reporting Station
Light Rain Light Rain  
Wind Chill: 25°   Ceiling: 1700
Heat Index: 36°   Visibility: 7mi
Dew Point: 32°   Wind: 18mph
Humidity: 87%   Direction: 280°W
Pressure: 29.52"   Gusts: 26mph
Location:  44.46°N, 103.64°W
Report Text: KSPF 220455Z AUTO 28016G23KT 7SM -RA OVC017 02/00 A2952 RMK AO2
Loading
Personal Weather Stations






























Interactive Weather Map New forecast layout! Learn more

10-Day Weather Forecast

Advertisements
Track Severe Weather on mobile